Preview of NWS' New Version of Forecast
This preview is not operational and should not be used for support decisions.

Terminal Aerodrome Forecast (TAF)

Issued by National Weather Service (NWS)

                            
000
FTUS42 KKEY 150922 AAB
TAFMTH
TAF AMD
KMTH 150922Z 1509/1606 09007KT P6SM VCSH FEW025
     FM151500 08010G16KT P6SM FEW025
     FM151800 09012G18KT P6SM FEW025 SCT050
     FM160200 10011KT P6SM FEW020=